sensor_id;sensor_type;location;lat;lon;timestamp;temperature;humidity
8856;DHT22;4464;50.882;4.730;2023-07-31T00:02:10;16.80;99.90
8856;DHT22;4464;50.882;4.730;2023-07-31T00:04:38;16.80;99.90
8856;DHT22;4464;50.882;4.730;2023-07-31T00:07:06;16.90;99.90
8856;DHT22;4464;50.882;4.730;2023-07-31T00:09:33;16.90;99.90
8856;DHT22;4464;50.882;4.730;2023-07-31T00:11:59;16.90;99.90
8856;DHT22;4464;50.882;4.730;2023-07-31T00:14:25;16.90;99.90
8856;DHT22;4464;50.882;4.730;2023-07-31T00:16:51;16.90;99.90
8856;DHT22;4464;50.882;4.730;2023-07-31T00:19:19;17.00;99.90
8856;DHT22;4464;50.882;4.730;2023-07-31T00:21:49;17.00;99.90
8856;DHT22;4464;50.882;4.730;2023-07-31T00:24:15;17.00;99.90
8856;DHT22;4464;50.882;4.730;2023-07-31T00:26:41;17.00;99.90
8856;DHT22;4464;50.882;4.730;2023-07-31T00:29:11;17.00;99.90
8856;DHT22;4464;50.882;4.730;2023-07-31T00:31:39;17.00;99.90
8856;DHT22;4464;50.882;4.730;2023-07-31T00:34:05;17.00;99.90
8856;DHT22;4464;50.882;4.730;2023-07-31T00:36:33;17.10;99.90
8856;DHT22;4464;50.882;4.730;2023-07-31T00:38:59;17.10;99.90
8856;DHT22;4464;50.882;4.730;2023-07-31T00:41:27;17.10;99.90
8856;DHT22;4464;50.882;4.730;2023-07-31T00:43:53;17.10;99.90
8856;DHT22;4464;50.882;4.730;2023-07-31T00:46:19;17.10;99.90
8856;DHT22;4464;50.882;4.730;2023-07-31T00:48:49;17.20;99.90
8856;DHT22;4464;50.882;4.730;2023-07-31T00:51:15;17.20;99.90
8856;DHT22;4464;50.882;4.730;2023-07-31T00:53:41;17.20;99.90
8856;DHT22;4464;50.882;4.730;2023-07-31T00:56:10;17.30;99.90
8856;DHT22;4464;50.882;4.730;2023-07-31T00:58:36;17.30;99.90
8856;DHT22;4464;50.882;4.730;2023-07-31T01:01:02;17.30;99.90
8856;DHT22;4464;50.882;4.730;2023-07-31T01:03:28;17.30;99.90
8856;DHT22;4464;50.882;4.730;2023-07-31T01:11:36;17.30;99.90
8856;DHT22;4464;50.882;4.730;2023-07-31T01:14:03;17.40;99.90
8856;DHT22;4464;50.882;4.730;2023-07-31T01:16:32;17.40;99.90
8856;DHT22;4464;50.882;4.730;2023-07-31T01:18:57;17.40;99.90
8856;DHT22;4464;50.882;4.730;2023-07-31T01:21:33;17.40;99.90
8856;DHT22;4464;50.882;4.730;2023-07-31T01:26:47;17.40;99.90
8856;DHT22;4464;50.882;4.730;2023-07-31T01:29:23;17.40;99.90
8856;DHT22;4464;50.882;4.730;2023-07-31T01:31:53;17.40;99.90
8856;DHT22;4464;50.882;4.730;2023-07-31T01:34:21;17.40;99.90
8856;DHT22;4464;50.882;4.730;2023-07-31T01:36:47;17.30;99.90
8856;DHT22;4464;50.882;4.730;2023-07-31T01:39:13;17.30;99.90
8856;DHT22;4464;50.882;4.730;2023-07-31T01:41:41;17.40;99.90
8856;DHT22;4464;50.882;4.730;2023-07-31T01:44:06;17.50;99.90
8856;DHT22;4464;50.882;4.730;2023-07-31T01:46:34;17.40;99.90
8856;DHT22;4464;50.882;4.730;2023-07-31T01:49:00;17.50;99.90
8856;DHT22;4464;50.882;4.730;2023-07-31T01:51:26;17.50;99.90
8856;DHT22;4464;50.882;4.730;2023-07-31T01:53:54;17.50;99.90
8856;DHT22;4464;50.882;4.730;2023-07-31T01:56:20;17.50;99.90
8856;DHT22;4464;50.882;4.730;2023-07-31T01:58:46;17.50;99.90
8856;DHT22;4464;50.882;4.730;2023-07-31T02:01:12;17.50;99.90
8856;DHT22;4464;50.882;4.730;2023-07-31T02:03:37;17.40;99.90
8856;DHT22;4464;50.882;4.730;2023-07-31T02:06:03;17.50;99.90
8856;DHT22;4464;50.882;4.730;2023-07-31T02:08:29;17.40;99.90
8856;DHT22;4464;50.882;4.730;2023-07-31T02:10:55;17.40;99.90
8856;DHT22;4464;50.882;4.730;2023-07-31T02:13:20;17.40;99.90
8856;DHT22;4464;50.882;4.730;2023-07-31T02:15:46;17.40;99.90
8856;DHT22;4464;50.882;4.730;2023-07-31T02:18:12;17.40;99.90
8856;DHT22;4464;50.882;4.730;2023-07-31T02:20:38;17.40;99.90
8856;DHT22;4464;50.882;4.730;2023-07-31T02:23:04;17.40;99.90
8856;DHT22;4464;50.882;4.730;2023-07-31T02:25:29;17.40;99.90
8856;DHT22;4464;50.882;4.730;2023-07-31T02:27:58;17.40;99.90
8856;DHT22;4464;50.882;4.730;2023-07-31T02:30:26;17.40;99.90
8856;DHT22;4464;50.882;4.730;2023-07-31T02:32:52;17.40;99.90
8856;DHT22;4464;50.882;4.730;2023-07-31T02:35:19;17.30;99.90
8856;DHT22;4464;50.882;4.730;2023-07-31T02:37:45;17.30;99.90
8856;DHT22;4464;50.882;4.730;2023-07-31T02:40:11;17.30;99.90
8856;DHT22;4464;50.882;4.730;2023-07-31T02:42:37;17.30;99.90
8856;DHT22;4464;50.882;4.730;2023-07-31T02:45:06;17.40;99.90
8856;DHT22;4464;50.882;4.730;2023-07-31T02:47:34;17.40;99.90
8856;DHT22;4464;50.882;4.730;2023-07-31T02:50:03;17.40;99.90
8856;DHT22;4464;50.882;4.730;2023-07-31T02:52:29;17.40;99.90
8856;DHT22;4464;50.882;4.730;2023-07-31T02:54:55;17.40;99.90
8856;DHT22;4464;50.882;4.730;2023-07-31T02:57:21;17.40;99.90
8856;DHT22;4464;50.882;4.730;2023-07-31T02:59:47;17.40;99.90
8856;DHT22;4464;50.882;4.730;2023-07-31T03:02:13;17.40;99.90
8856;DHT22;4464;50.882;4.730;2023-07-31T03:04:39;17.50;99.90
8856;DHT22;4464;50.882;4.730;2023-07-31T03:07:05;17.40;99.90
8856;DHT22;4464;50.882;4.730;2023-07-31T03:09:33;17.40;99.90
8856;DHT22;4464;50.882;4.730;2023-07-31T03:11:59;17.40;99.90
8856;DHT22;4464;50.882;4.730;2023-07-31T03:14:25;17.50;99.90
8856;DHT22;4464;50.882;4.730;2023-07-31T03:16:54;17.50;99.90
8856;DHT22;4464;50.882;4.730;2023-07-31T03:19:20;17.50;99.90
8856;DHT22;4464;50.882;4.730;2023-07-31T03:21:46;17.50;99.90
8856;DHT22;4464;50.882;4.730;2023-07-31T03:24:14;17.40;99.90
8856;DHT22;4464;50.882;4.730;2023-07-31T03:26:39;17.50;99.90
8856;DHT22;4464;50.882;4.730;2023-07-31T03:29:07;17.40;99.90
8856;DHT22;4464;50.882;4.730;2023-07-31T03:31:33;17.40;99.90
8856;DHT22;4464;50.882;4.730;2023-07-31T03:33:59;17.40;99.90
8856;DHT22;4464;50.882;4.730;2023-07-31T03:36:27;17.40;99.90
8856;DHT22;4464;50.882;4.730;2023-07-31T03:38:53;17.40;99.90
8856;DHT22;4464;50.882;4.730;2023-07-31T03:41:19;17.40;99.90
8856;DHT22;4464;50.882;4.730;2023-07-31T03:43:49;17.40;99.90
8856;DHT22;4464;50.882;4.730;2023-07-31T03:46:16;17.40;99.90
8856;DHT22;4464;50.882;4.730;2023-07-31T03:48:42;17.40;99.90
8856;DHT22;4464;50.882;4.730;2023-07-31T03:51:08;17.40;99.90
8856;DHT22;4464;50.882;4.730;2023-07-31T03:53:34;17.40;99.90
8856;DHT22;4464;50.882;4.730;2023-07-31T03:55:59;17.40;99.90
8856;DHT22;4464;50.882;4.730;2023-07-31T03:58:27;17.40;99.90
8856;DHT22;4464;50.882;4.730;2023-07-31T04:00:53;17.40;99.90
8856;DHT22;4464;50.882;4.730;2023-07-31T04:03:19;17.30;99.90
8856;DHT22;4464;50.882;4.730;2023-07-31T04:05:44;17.30;99.90
8856;DHT22;4464;50.882;4.730;2023-07-31T04:08:10;17.20;99.90
8856;DHT22;4464;50.882;4.730;2023-07-31T04:10:36;17.10;99.90
8856;DHT22;4464;50.882;4.730;2023-07-31T04:13:04;17.20;99.90
8856;DHT22;4464;50.882;4.730;2023-07-31T04:15:32;17.20;99.90
8856;DHT22;4464;50.882;4.730;2023-07-31T04:17:58;17.10;99.90
8856;DHT22;4464;50.882;4.730;2023-07-31T04:20:24;17.10;99.90
8856;DHT22;4464;50.882;4.730;2023-07-31T04:22:49;17.00;99.90
8856;DHT22;4464;50.882;4.730;2023-07-31T04:25:15;16.90;99.90
8856;DHT22;4464;50.882;4.730;2023-07-31T04:27:41;16.90;99.90
8856;DHT22;4464;50.882;4.730;2023-07-31T04:30:09;16.80;99.90
8856;DHT22;4464;50.882;4.730;2023-07-31T04:32:35;16.80;99.90
8856;DHT22;4464;50.882;4.730;2023-07-31T04:35:03;16.80;99.90
8856;DHT22;4464;50.882;4.730;2023-07-31T04:37:29;16.70;99.90
8856;DHT22;4464;50.882;4.730;2023-07-31T04:39:55;16.70;99.90
8856;DHT22;4464;50.882;4.730;2023-07-31T04:42:20;16.70;99.90
8856;DHT22;4464;50.882;4.730;2023-07-31T04:44:46;16.60;99.90
8856;DHT22;4464;50.882;4.730;2023-07-31T04:47:12;16.60;99.90
8856;DHT22;4464;50.882;4.730;2023-07-31T04:49:38;16.60;99.90
8856;DHT22;4464;50.882;4.730;2023-07-31T04:52:04;16.70;99.90
8856;DHT22;4464;50.882;4.730;2023-07-31T04:54:30;16.70;99.90
8856;DHT22;4464;50.882;4.730;2023-07-31T04:56:58;16.70;99.90
8856;DHT22;4464;50.882;4.730;2023-07-31T04:59:24;16.60;99.90
8856;DHT22;4464;50.882;4.730;2023-07-31T05:01:50;16.70;99.90
8856;DHT22;4464;50.882;4.730;2023-07-31T05:04:16;16.70;99.90
8856;DHT22;4464;50.882;4.730;2023-07-31T05:06:42;16.70;99.90
8856;DHT22;4464;50.882;4.730;2023-07-31T05:09:08;16.70;99.90
8856;DHT22;4464;50.882;4.730;2023-07-31T05:11:35;16.70;99.90
8856;DHT22;4464;50.882;4.730;2023-07-31T05:14:00;16.70;99.90
8856;DHT22;4464;50.882;4.730;2023-07-31T05:16:29;16.70;99.90
8856;DHT22;4464;50.882;4.730;2023-07-31T05:18:54;16.70;99.90
8856;DHT22;4464;50.882;4.730;2023-07-31T05:21:20;16.70;99.90
8856;DHT22;4464;50.882;4.730;2023-07-31T05:23:49;16.70;99.90
8856;DHT22;4464;50.882;4.730;2023-07-31T05:26:15;16.70;99.90
8856;DHT22;4464;50.882;4.730;2023-07-31T05:28:41;16.70;99.90
8856;DHT22;4464;50.882;4.730;2023-07-31T05:31:06;16.70;99.90
8856;DHT22;4464;50.882;4.730;2023-07-31T05:33:32;16.70;99.90
8856;DHT22;4464;50.882;4.730;2023-07-31T05:35:58;16.70;99.90
8856;DHT22;4464;50.882;4.730;2023-07-31T05:38:24;16.60;99.90
8856;DHT22;4464;50.882;4.730;2023-07-31T05:40:50;16.50;99.90
8856;DHT22;4464;50.882;4.730;2023-07-31T05:43:16;16.50;99.90
8856;DHT22;4464;50.882;4.730;2023-07-31T05:45:46;16.50;99.90
8856;DHT22;4464;50.882;4.730;2023-07-31T05:48:13;16.50;99.90
8856;DHT22;4464;50.882;4.730;2023-07-31T05:50:39;16.40;99.90
8856;DHT22;4464;50.882;4.730;2023-07-31T05:53:06;16.40;99.90
8856;DHT22;4464;50.882;4.730;2023-07-31T05:55:33;16.40;99.90
8856;DHT22;4464;50.882;4.730;2023-07-31T05:58:01;16.40;99.90
8856;DHT22;4464;50.882;4.730;2023-07-31T06:00:27;16.40;99.90
8856;DHT22;4464;50.882;4.730;2023-07-31T06:02:53;16.30;99.90
8856;DHT22;4464;50.882;4.730;2023-07-31T06:05:19;16.30;99.90
8856;DHT22;4464;50.882;4.730;2023-07-31T06:07:45;16.30;99.90
8856;DHT22;4464;50.882;4.730;2023-07-31T06:10:13;16.30;99.90
8856;DHT22;4464;50.882;4.730;2023-07-31T06:12:39;16.30;99.90
8856;DHT22;4464;50.882;4.730;2023-07-31T06:15:08;16.30;99.90
8856;DHT22;4464;50.882;4.730;2023-07-31T06:17:34;16.30;99.90
8856;DHT22;4464;50.882;4.730;2023-07-31T06:20:00;16.20;99.90
8856;DHT22;4464;50.882;4.730;2023-07-31T06:22:26;16.20;99.90
8856;DHT22;4464;50.882;4.730;2023-07-31T06:24:51;16.20;99.90
8856;DHT22;4464;50.882;4.730;2023-07-31T06:27:17;16.20;99.90
8856;DHT22;4464;50.882;4.730;2023-07-31T06:29:43;16.20;99.90
8856;DHT22;4464;50.882;4.730;2023-07-31T06:32:09;16.30;99.90
8856;DHT22;4464;50.882;4.730;2023-07-31T06:34:34;16.30;99.90
8856;DHT22;4464;50.882;4.730;2023-07-31T06:37:00;16.30;99.90
8856;DHT22;4464;50.882;4.730;2023-07-31T06:39:26;16.30;99.90
8856;DHT22;4464;50.882;4.730;2023-07-31T06:41:52;16.40;99.90
8856;DHT22;4464;50.882;4.730;2023-07-31T06:44:20;16.40;99.90
8856;DHT22;4464;50.882;4.730;2023-07-31T06:46:45;16.40;99.90
8856;DHT22;4464;50.882;4.730;2023-07-31T06:49:11;16.40;99.90
8856;DHT22;4464;50.882;4.730;2023-07-31T06:51:37;16.40;99.90
8856;DHT22;4464;50.882;4.730;2023-07-31T06:54:04;16.50;99.90
8856;DHT22;4464;50.882;4.730;2023-07-31T06:56:29;16.50;99.90
8856;DHT22;4464;50.882;4.730;2023-07-31T06:58:56;16.50;99.90
8856;DHT22;4464;50.882;4.730;2023-07-31T07:01:21;16.50;99.90
8856;DHT22;4464;50.882;4.730;2023-07-31T07:03:47;16.60;99.90
8856;DHT22;4464;50.882;4.730;2023-07-31T07:06:16;16.60;99.90
8856;DHT22;4464;50.882;4.730;2023-07-31T07:08:42;16.60;99.90
8856;DHT22;4464;50.882;4.730;2023-07-31T07:11:08;16.70;99.90
8856;DHT22;4464;50.882;4.730;2023-07-31T07:13:34;16.60;99.90
8856;DHT22;4464;50.882;4.730;2023-07-31T07:15:59;16.80;99.90
8856;DHT22;4464;50.882;4.730;2023-07-31T07:18:25;16.70;99.90
8856;DHT22;4464;50.882;4.730;2023-07-31T07:20:52;16.90;99.90
8856;DHT22;4464;50.882;4.730;2023-07-31T07:23:19;16.90;99.90
8856;DHT22;4464;50.882;4.730;2023-07-31T07:25:45;16.90;99.90
8856;DHT22;4464;50.882;4.730;2023-07-31T07:28:14;16.90;99.90
8856;DHT22;4464;50.882;4.730;2023-07-31T07:30:40;17.00;99.90
8856;DHT22;4464;50.882;4.730;2023-07-31T07:33:06;17.10;99.90
8856;DHT22;4464;50.882;4.730;2023-07-31T07:35:35;17.20;99.90
8856;DHT22;4464;50.882;4.730;2023-07-31T07:38:04;17.40;99.90
8856;DHT22;4464;50.882;4.730;2023-07-31T07:40:30;17.50;99.90
8856;DHT22;4464;50.882;4.730;2023-07-31T07:42:58;17.70;99.90
8856;DHT22;4464;50.882;4.730;2023-07-31T07:45:25;17.80;99.90
8856;DHT22;4464;50.882;4.730;2023-07-31T07:47:51;17.80;99.90
8856;DHT22;4464;50.882;4.730;2023-07-31T07:50:17;17.80;99.90
8856;DHT22;4464;50.882;4.730;2023-07-31T07:52:43;17.80;99.90
8856;DHT22;4464;50.882;4.730;2023-07-31T07:55:09;17.80;99.90
8856;DHT22;4464;50.882;4.730;2023-07-31T07:57:34;17.80;99.90
8856;DHT22;4464;50.882;4.730;2023-07-31T08:00:02;17.90;99.90
8856;DHT22;4464;50.882;4.730;2023-07-31T08:02:28;17.90;99.90
8856;DHT22;4464;50.882;4.730;2023-07-31T08:04:54;17.90;99.90
8856;DHT22;4464;50.882;4.730;2023-07-31T08:07:20;18.00;99.90
8856;DHT22;4464;50.882;4.730;2023-07-31T08:09:45;18.00;99.90
8856;DHT22;4464;50.882;4.730;2023-07-31T08:12:11;18.00;99.90
8856;DHT22;4464;50.882;4.730;2023-07-31T08:14:37;18.10;99.90
8856;DHT22;4464;50.882;4.730;2023-07-31T08:17:05;18.20;99.90
8856;DHT22;4464;50.882;4.730;2023-07-31T08:19:31;18.10;99.90
8856;DHT22;4464;50.882;4.730;2023-07-31T08:21:56;18.00;99.90
8856;DHT22;4464;50.882;4.730;2023-07-31T08:24:22;18.10;99.90
8856;DHT22;4464;50.882;4.730;2023-07-31T08:26:48;18.20;99.90
8856;DHT22;4464;50.882;4.730;2023-07-31T08:29:16;18.30;99.90
8856;DHT22;4464;50.882;4.730;2023-07-31T08:31:42;18.30;99.90
8856;DHT22;4464;50.882;4.730;2023-07-31T08:34:09;18.30;99.90
8856;DHT22;4464;50.882;4.730;2023-07-31T08:36:40;18.40;99.90
8856;DHT22;4464;50.882;4.730;2023-07-31T08:39:06;18.30;99.90
8856;DHT22;4464;50.882;4.730;2023-07-31T08:41:31;18.30;99.90
8856;DHT22;4464;50.882;4.730;2023-07-31T08:44:02;18.40;99.90
8856;DHT22;4464;50.882;4.730;2023-07-31T08:46:28;18.50;99.90
8856;DHT22;4464;50.882;4.730;2023-07-31T08:48:55;18.60;99.90
8856;DHT22;4464;50.882;4.730;2023-07-31T08:51:23;18.50;99.90
8856;DHT22;4464;50.882;4.730;2023-07-31T08:53:49;18.40;99.90
8856;DHT22;4464;50.882;4.730;2023-07-31T08:56:17;18.50;99.90
8856;DHT22;4464;50.882;4.730;2023-07-31T08:58:46;18.60;99.90
8856;DHT22;4464;50.882;4.730;2023-07-31T09:01:16;18.60;99.90
8856;DHT22;4464;50.882;4.730;2023-07-31T09:03:43;18.50;99.90
8856;DHT22;4464;50.882;4.730;2023-07-31T09:06:10;18.40;99.90
8856;DHT22;4464;50.882;4.730;2023-07-31T09:08:44;18.30;99.90
8856;DHT22;4464;50.882;4.730;2023-07-31T09:11:10;18.30;99.90
8856;DHT22;4464;50.882;4.730;2023-07-31T09:13:37;18.30;99.90
8856;DHT22;4464;50.882;4.730;2023-07-31T09:16:04;18.20;99.90
8856;DHT22;4464;50.882;4.730;2023-07-31T09:18:30;18.20;99.90
8856;DHT22;4464;50.882;4.730;2023-07-31T09:21:03;18.20;99.90
8856;DHT22;4464;50.882;4.730;2023-07-31T09:23:41;18.30;99.90
8856;DHT22;4464;50.882;4.730;2023-07-31T09:26:07;18.30;99.90
8856;DHT22;4464;50.882;4.730;2023-07-31T09:28:33;18.30;99.90
8856;DHT22;4464;50.882;4.730;2023-07-31T09:30:59;18.30;99.90
8856;DHT22;4464;50.882;4.730;2023-07-31T09:33:24;18.40;99.90
8856;DHT22;4464;50.882;4.730;2023-07-31T09:35:50;18.40;99.90
8856;DHT22;4464;50.882;4.730;2023-07-31T09:38:16;18.40;99.90
8856;DHT22;4464;50.882;4.730;2023-07-31T09:40:44;18.50;99.90
8856;DHT22;4464;50.882;4.730;2023-07-31T09:43:20;18.60;99.90
8856;DHT22;4464;50.882;4.730;2023-07-31T09:45:47;18.60;99.90
8856;DHT22;4464;50.882;4.730;2023-07-31T09:48:17;18.90;99.90
8856;DHT22;4464;50.882;4.730;2023-07-31T09:50:48;19.10;99.90
8856;DHT22;4464;50.882;4.730;2023-07-31T09:53:15;19.30;99.90
8856;DHT22;4464;50.882;4.730;2023-07-31T09:55:44;19.40;99.90
8856;DHT22;4464;50.882;4.730;2023-07-31T09:58:11;19.30;99.90
8856;DHT22;4464;50.882;4.730;2023-07-31T10:00:37;19.30;99.90
8856;DHT22;4464;50.882;4.730;2023-07-31T10:03:09;19.20;99.90
8856;DHT22;4464;50.882;4.730;2023-07-31T10:05:44;19.00;99.90
8856;DHT22;4464;50.882;4.730;2023-07-31T10:08:15;19.10;99.90
8856;DHT22;4464;50.882;4.730;2023-07-31T10:10:43;19.00;99.90
8856;DHT22;4464;50.882;4.730;2023-07-31T10:13:12;19.00;99.90
8856;DHT22;4464;50.882;4.730;2023-07-31T10:15:41;18.80;99.90
8856;DHT22;4464;50.882;4.730;2023-07-31T10:18:09;18.80;99.90
8856;DHT22;4464;50.882;4.730;2023-07-31T10:20:37;19.00;99.90
8856;DHT22;4464;50.882;4.730;2023-07-31T10:23:03;18.90;99.90
8856;DHT22;4464;50.882;4.730;2023-07-31T10:25:29;18.90;99.90
8856;DHT22;4464;50.882;4.730;2023-07-31T10:27:58;18.90;99.90
8856;DHT22;4464;50.882;4.730;2023-07-31T10:30:27;18.80;99.90
8856;DHT22;4464;50.882;4.730;2023-07-31T10:32:55;18.80;99.90
8856;DHT22;4464;50.882;4.730;2023-07-31T10:35:21;19.10;99.90
8856;DHT22;4464;50.882;4.730;2023-07-31T10:37:51;19.30;99.90
8856;DHT22;4464;50.882;4.730;2023-07-31T10:40:26;19.60;99.90
8856;DHT22;4464;50.882;4.730;2023-07-31T10:42:55;19.80;99.90
8856;DHT22;4464;50.882;4.730;2023-07-31T10:45:42;19.90;99.90
8856;DHT22;4464;50.882;4.730;2023-07-31T10:48:17;20.00;99.90
8856;DHT22;4464;50.882;4.730;2023-07-31T10:50:51;20.10;99.90
8856;DHT22;4464;50.882;4.730;2023-07-31T10:53:31;20.10;99.90
8856;DHT22;4464;50.882;4.730;2023-07-31T10:56:04;19.90;99.90
8856;DHT22;4464;50.882;4.730;2023-07-31T10:58:30;19.70;99.90
8856;DHT22;4464;50.882;4.730;2023-07-31T11:01:03;19.70;99.90
8856;DHT22;4464;50.882;4.730;2023-07-31T11:03:47;19.50;99.90
8856;DHT22;4464;50.882;4.730;2023-07-31T11:06:15;19.60;99.90
8856;DHT22;4464;50.882;4.730;2023-07-31T11:08:48;19.70;99.90
8856;DHT22;4464;50.882;4.730;2023-07-31T11:11:18;19.80;99.90
8856;DHT22;4464;50.882;4.730;2023-07-31T11:13:51;19.70;99.90
8856;DHT22;4464;50.882;4.730;2023-07-31T11:16:22;19.80;99.90
8856;DHT22;4464;50.882;4.730;2023-07-31T11:18:49;20.00;99.90
8856;DHT22;4464;50.882;4.730;2023-07-31T11:21:21;20.20;99.90
8856;DHT22;4464;50.882;4.730;2023-07-31T11:23:49;20.30;99.90
8856;DHT22;4464;50.882;4.730;2023-07-31T11:26:16;20.30;99.90
8856;DHT22;4464;50.882;4.730;2023-07-31T11:28:47;20.40;99.90
8856;DHT22;4464;50.882;4.730;2023-07-31T11:31:16;20.40;99.90
8856;DHT22;4464;50.882;4.730;2023-07-31T11:33:45;20.40;99.90
8856;DHT22;4464;50.882;4.730;2023-07-31T11:36:19;20.30;99.90
8856;DHT22;4464;50.882;4.730;2023-07-31T11:38:45;20.50;99.90
8856;DHT22;4464;50.882;4.730;2023-07-31T11:41:16;20.60;99.90
8856;DHT22;4464;50.882;4.730;2023-07-31T11:43:42;20.60;99.90
8856;DHT22;4464;50.882;4.730;2023-07-31T11:46:08;20.70;99.90
8856;DHT22;4464;50.882;4.730;2023-07-31T11:48:39;20.80;99.90
8856;DHT22;4464;50.882;4.730;2023-07-31T11:51:08;20.70;99.90
8856;DHT22;4464;50.882;4.730;2023-07-31T11:53:53;20.80;99.90
8856;DHT22;4464;50.882;4.730;2023-07-31T11:56:21;20.70;99.90
8856;DHT22;4464;50.882;4.730;2023-07-31T11:58:52;20.90;99.90
8856;DHT22;4464;50.882;4.730;2023-07-31T12:01:25;20.80;99.90
8856;DHT22;4464;50.882;4.730;2023-07-31T12:03:56;20.80;99.90
8856;DHT22;4464;50.882;4.730;2023-07-31T12:06:35;20.70;99.90
8856;DHT22;4464;50.882;4.730;2023-07-31T12:09:04;20.90;99.90
8856;DHT22;4464;50.882;4.730;2023-07-31T12:11:33;20.80;99.90
8856;DHT22;4464;50.882;4.730;2023-07-31T12:14:09;20.90;99.90
8856;DHT22;4464;50.882;4.730;2023-07-31T12:16:44;20.80;99.90
8856;DHT22;4464;50.882;4.730;2023-07-31T12:19:12;20.70;99.90
8856;DHT22;4464;50.882;4.730;2023-07-31T12:21:38;20.80;99.90
8856;DHT22;4464;50.882;4.730;2023-07-31T12:24:08;21.00;99.90
8856;DHT22;4464;50.882;4.730;2023-07-31T12:26:34;21.30;99.90
8856;DHT22;4464;50.882;4.730;2023-07-31T12:29:00;21.50;99.90
8856;DHT22;4464;50.882;4.730;2023-07-31T12:31:28;21.60;99.90
8856;DHT22;4464;50.882;4.730;2023-07-31T12:33:55;21.50;99.90
8856;DHT22;4464;50.882;4.730;2023-07-31T12:36:24;21.10;99.90
8856;DHT22;4464;50.882;4.730;2023-07-31T12:38:51;21.00;99.90
8856;DHT22;4464;50.882;4.730;2023-07-31T12:41:20;21.00;99.90
8856;DHT22;4464;50.882;4.730;2023-07-31T12:43:48;21.10;99.90
8856;DHT22;4464;50.882;4.730;2023-07-31T12:46:14;20.90;99.90
8856;DHT22;4464;50.882;4.730;2023-07-31T12:48:41;20.90;99.90
8856;DHT22;4464;50.882;4.730;2023-07-31T12:51:07;20.90;99.90
8856;DHT22;4464;50.882;4.730;2023-07-31T12:53:33;20.90;99.90
8856;DHT22;4464;50.882;4.730;2023-07-31T12:56:01;20.90;99.90
8856;DHT22;4464;50.882;4.730;2023-07-31T12:58:27;21.00;99.90
8856;DHT22;4464;50.882;4.730;2023-07-31T13:00:55;21.00;99.90
8856;DHT22;4464;50.882;4.730;2023-07-31T13:03:20;20.90;99.90
8856;DHT22;4464;50.882;4.730;2023-07-31T13:05:46;20.80;99.90
8856;DHT22;4464;50.882;4.730;2023-07-31T13:08:12;20.90;99.90
8856;DHT22;4464;50.882;4.730;2023-07-31T13:10:37;20.80;99.90
8856;DHT22;4464;50.882;4.730;2023-07-31T13:13:05;20.60;99.90
8856;DHT22;4464;50.882;4.730;2023-07-31T13:15:31;20.40;99.90
8856;DHT22;4464;50.882;4.730;2023-07-31T13:17:57;20.40;99.90
8856;DHT22;4464;50.882;4.730;2023-07-31T13:20:23;20.40;99.90
8856;DHT22;4464;50.882;4.730;2023-07-31T13:22:49;20.50;99.90
8856;DHT22;4464;50.882;4.730;2023-07-31T13:25:14;20.50;99.90
8856;DHT22;4464;50.882;4.730;2023-07-31T13:27:40;20.30;99.90
8856;DHT22;4464;50.882;4.730;2023-07-31T13:30:08;20.30;99.90
8856;DHT22;4464;50.882;4.730;2023-07-31T13:32:34;20.30;99.90
8856;DHT22;4464;50.882;4.730;2023-07-31T13:35:07;20.20;99.90
8856;DHT22;4464;50.882;4.730;2023-07-31T13:37:34;20.10;99.90
8856;DHT22;4464;50.882;4.730;2023-07-31T13:40:02;20.10;99.90
8856;DHT22;4464;50.882;4.730;2023-07-31T13:42:33;20.10;99.90
8856;DHT22;4464;50.882;4.730;2023-07-31T13:44:59;19.70;99.90
8856;DHT22;4464;50.882;4.730;2023-07-31T13:47:27;19.40;99.90
8856;DHT22;4464;50.882;4.730;2023-07-31T13:49:52;19.30;99.90
8856;DHT22;4464;50.882;4.730;2023-07-31T13:52:18;19.20;99.90
8856;DHT22;4464;50.882;4.730;2023-07-31T13:54:44;19.00;99.90
8856;DHT22;4464;50.882;4.730;2023-07-31T13:57:10;18.80;99.90
8856;DHT22;4464;50.882;4.730;2023-07-31T13:59:36;18.60;99.90
8856;DHT22;4464;50.882;4.730;2023-07-31T14:02:02;18.50;99.90
8856;DHT22;4464;50.882;4.730;2023-07-31T14:04:28;18.50;99.90
8856;DHT22;4464;50.882;4.730;2023-07-31T14:06:55;18.40;99.90
8856;DHT22;4464;50.882;4.730;2023-07-31T14:09:25;18.30;99.90
8856;DHT22;4464;50.882;4.730;2023-07-31T14:11:53;18.20;99.90
8856;DHT22;4464;50.882;4.730;2023-07-31T14:14:19;18.10;99.90
8856;DHT22;4464;50.882;4.730;2023-07-31T14:16:45;18.20;99.90
8856;DHT22;4464;50.882;4.730;2023-07-31T14:19:11;18.10;99.90
8856;DHT22;4464;50.882;4.730;2023-07-31T14:21:36;18.10;99.90
8856;DHT22;4464;50.882;4.730;2023-07-31T14:24:02;18.10;99.90
8856;DHT22;4464;50.882;4.730;2023-07-31T14:26:28;18.10;99.90
8856;DHT22;4464;50.882;4.730;2023-07-31T14:28:54;18.10;99.90
8856;DHT22;4464;50.882;4.730;2023-07-31T14:31:20;18.00;99.90
8856;DHT22;4464;50.882;4.730;2023-07-31T14:33:48;18.10;99.90
8856;DHT22;4464;50.882;4.730;2023-07-31T14:36:14;18.00;99.90
8856;DHT22;4464;50.882;4.730;2023-07-31T14:38:41;18.00;99.90
8856;DHT22;4464;50.882;4.730;2023-07-31T14:41:07;18.00;99.90
8856;DHT22;4464;50.882;4.730;2023-07-31T14:43:33;18.00;99.90
8856;DHT22;4464;50.882;4.730;2023-07-31T14:45:59;18.10;99.90
8856;DHT22;4464;50.882;4.730;2023-07-31T14:48:26;18.00;99.90
8856;DHT22;4464;50.882;4.730;2023-07-31T14:50:55;18.00;99.90
8856;DHT22;4464;50.882;4.730;2023-07-31T14:53:21;18.00;99.90
8856;DHT22;4464;50.882;4.730;2023-07-31T14:55:47;18.00;99.90
8856;DHT22;4464;50.882;4.730;2023-07-31T14:58:13;17.90;99.90
8856;DHT22;4464;50.882;4.730;2023-07-31T15:00:39;18.00;99.90
8856;DHT22;4464;50.882;4.730;2023-07-31T15:03:05;18.00;99.90
8856;DHT22;4464;50.882;4.730;2023-07-31T15:05:31;17.90;99.90
8856;DHT22;4464;50.882;4.730;2023-07-31T15:07:58;17.90;99.90
8856;DHT22;4464;50.882;4.730;2023-07-31T15:10:24;18.00;99.90
8856;DHT22;4464;50.882;4.730;2023-07-31T15:12:52;18.00;99.90
8856;DHT22;4464;50.882;4.730;2023-07-31T15:15:20;18.00;99.90
8856;DHT22;4464;50.882;4.730;2023-07-31T15:17:46;18.00;99.90
8856;DHT22;4464;50.882;4.730;2023-07-31T15:20:12;18.00;99.90
8856;DHT22;4464;50.882;4.730;2023-07-31T15:22:41;18.00;99.90
8856;DHT22;4464;50.882;4.730;2023-07-31T15:25:07;17.90;99.90
8856;DHT22;4464;50.882;4.730;2023-07-31T15:27:33;17.80;99.90
8856;DHT22;4464;50.882;4.730;2023-07-31T15:29:59;17.90;99.90
8856;DHT22;4464;50.882;4.730;2023-07-31T15:32:25;18.00;99.90
8856;DHT22;4464;50.882;4.730;2023-07-31T15:34:53;18.00;99.90
8856;DHT22;4464;50.882;4.730;2023-07-31T15:37:19;17.90;99.90
8856;DHT22;4464;50.882;4.730;2023-07-31T15:39:44;17.90;99.90
8856;DHT22;4464;50.882;4.730;2023-07-31T15:42:10;17.80;99.90
8856;DHT22;4464;50.882;4.730;2023-07-31T15:44:36;17.90;99.90
8856;DHT22;4464;50.882;4.730;2023-07-31T15:47:02;17.80;99.90
8856;DHT22;4464;50.882;4.730;2023-07-31T15:49:30;17.80;99.90
8856;DHT22;4464;50.882;4.730;2023-07-31T15:51:56;17.90;99.90
8856;DHT22;4464;50.882;4.730;2023-07-31T15:54:24;17.90;99.90
8856;DHT22;4464;50.882;4.730;2023-07-31T15:56:50;17.90;99.90
8856;DHT22;4464;50.882;4.730;2023-07-31T15:59:15;17.90;99.90
8856;DHT22;4464;50.882;4.730;2023-07-31T16:01:41;17.80;99.90
8856;DHT22;4464;50.882;4.730;2023-07-31T16:04:07;17.90;99.90
8856;DHT22;4464;50.882;4.730;2023-07-31T16:06:35;17.90;99.90
8856;DHT22;4464;50.882;4.730;2023-07-31T16:09:00;17.80;99.90
8856;DHT22;4464;50.882;4.730;2023-07-31T16:11:27;17.80;99.90